createdAt,value
2018-12-10T00:00:43.693Z,932.8
2018-12-10T00:01:43.421Z,932.9
2018-12-10T00:02:43.150Z,933
2018-12-10T00:03:42.897Z,932.8
2018-12-10T00:04:43.056Z,932.9
2018-12-10T00:05:42.789Z,933
2018-12-10T00:06:42.539Z,933
2018-12-10T00:07:42.260Z,933
2018-12-10T00:08:41.998Z,933.1
2018-12-10T00:09:41.714Z,932.9
2018-12-10T00:10:42.440Z,932.8
2018-12-10T00:11:42.186Z,933
2018-12-10T00:12:41.910Z,933
2018-12-10T00:13:41.636Z,933
2018-12-10T00:14:41.940Z,932.9
2018-12-10T00:15:41.824Z,933
2018-12-10T00:16:41.728Z,933.1
2018-12-10T00:17:41.602Z,933.2
2018-12-10T00:18:41.499Z,933.1
2018-12-10T00:19:41.388Z,931.7
2018-12-10T00:20:41.282Z,933.2
2018-12-10T00:21:41.208Z,933.1
2018-12-10T00:22:41.082Z,933.1
2018-12-10T00:23:40.979Z,933.2
2018-12-10T00:24:41.280Z,933.3
2018-12-10T00:25:41.197Z,933.1
2018-12-10T00:26:41.077Z,933.2
2018-12-10T00:27:41.006Z,933.2
2018-12-10T00:28:40.888Z,933.2
2018-12-10T00:29:40.763Z,933.3
2018-12-10T00:30:40.732Z,933.2
2018-12-10T00:31:40.627Z,933.1
2018-12-10T00:32:40.516Z,933.3
2018-12-10T00:33:40.418Z,933.3
2018-12-10T00:34:40.740Z,933.4
2018-12-10T00:35:40.626Z,933.5
2018-12-10T00:36:40.506Z,933.5
2018-12-10T00:37:40.433Z,933.4
2018-12-10T00:38:40.342Z,933.4
2018-12-10T00:39:40.232Z,933.3
2018-12-10T00:40:40.122Z,933.4
2018-12-10T00:41:40.022Z,933.3
2018-12-10T00:42:39.910Z,933.4
2018-12-10T00:43:39.866Z,933.4
2018-12-10T00:44:40.190Z,933.4
2018-12-10T00:45:40.072Z,933.4
2018-12-10T00:46:39.972Z,933.5
2018-12-10T00:47:39.858Z,933.4
2018-12-10T00:48:39.747Z,933.4
2018-12-10T00:49:39.662Z,933.4
2018-12-10T00:50:39.550Z,931.9
2018-12-10T00:51:39.554Z,933.4
2018-12-10T00:52:39.556Z,933.5
2018-12-10T00:53:39.442Z,933.3
2018-12-10T00:54:39.772Z,933.3
2018-12-10T00:55:39.665Z,933.2
2018-12-10T00:56:39.656Z,933.5
2018-12-10T00:57:39.536Z,933.4
2018-12-10T00:58:39.418Z,933.5
2018-12-10T00:59:39.436Z,933.4
2018-12-10T01:00:39.314Z,933.4
2018-12-10T01:01:41.381Z,933.5
2018-12-10T01:02:41.261Z,933.6
2018-12-10T01:03:41.162Z,933.5
2018-12-10T01:04:41.604Z,933.4
2018-12-10T01:05:41.502Z,933.5
2018-12-10T01:06:41.417Z,933.7
2018-12-10T01:07:41.447Z,933.7
2018-12-10T01:08:41.341Z,933.8
2018-12-10T01:09:41.235Z,933.7
2018-12-10T01:10:41.164Z,933.8
2018-12-10T01:11:41.063Z,933.9
2018-12-10T01:12:40.940Z,933.9
2018-12-10T01:13:40.809Z,933.7
2018-12-10T01:14:41.116Z,933.9
2018-12-10T01:15:41.008Z,934
2018-12-10T01:16:40.891Z,933.9
2018-12-10T01:17:40.769Z,934
2018-12-10T01:18:40.666Z,934.1
2018-12-10T01:19:40.567Z,934.1
2018-12-10T01:20:40.465Z,934.2
2018-12-10T01:21:40.345Z,934
2018-12-10T01:22:40.286Z,934.2
2018-12-10T01:23:40.175Z,932.7
2018-12-10T01:24:40.493Z,934.2
2018-12-10T01:25:40.375Z,934
2018-12-10T01:26:40.307Z,934.1
2018-12-10T01:27:40.207Z,934.2
2018-12-10T01:28:40.091Z,934
2018-12-10T01:29:40.001Z,934.1
2018-12-10T01:30:39.875Z,934.1
2018-12-10T01:31:39.791Z,934.3
2018-12-10T01:32:39.757Z,934.3
2018-12-10T01:33:39.651Z,934.2
2018-12-10T01:34:39.986Z,934.3
2018-12-10T01:35:39.875Z,934.3
2018-12-10T01:36:39.789Z,934.3
2018-12-10T01:37:39.672Z,934.4
2018-12-10T01:38:39.549Z,934.4
2018-12-10T01:39:39.447Z,934.2
2018-12-10T01:40:39.348Z,934.3
2018-12-10T01:41:39.247Z,934.3
2018-12-10T01:42:39.149Z,934.4
2018-12-10T01:43:39.107Z,934.3
2018-12-10T01:44:39.421Z,934.4
2018-12-10T01:45:39.327Z,934.4
2018-12-10T01:46:39.206Z,934.3
2018-12-10T01:47:39.139Z,934.4
2018-12-10T01:48:39.026Z,934.4
2018-12-10T01:49:38.898Z,934.4
2018-12-10T01:50:38.783Z,934.5
2018-12-10T01:51:38.662Z,934.5
2018-12-10T01:52:38.557Z,934.5
2018-12-10T01:53:38.454Z,934.5
2018-12-10T01:54:38.783Z,934.5
2018-12-10T01:55:38.665Z,934.5
2018-12-10T01:56:38.543Z,934.4
2018-12-10T01:57:38.454Z,933.7
2018-12-10T01:58:38.392Z,934.4
2018-12-10T01:59:38.269Z,933.9
2018-12-10T02:00:38.137Z,934.5
2018-12-10T02:01:38.018Z,934.5
2018-12-10T02:02:37.908Z,934.5
2018-12-10T02:03:37.773Z,934.5
2018-12-10T02:04:38.046Z,934.5
2018-12-10T02:05:38.046Z,934.5
2018-12-10T02:06:37.928Z,934.5
2018-12-10T02:07:37.660Z,934.6
2018-12-10T02:08:37.384Z,934.6
2018-12-10T02:09:37.104Z,934.6
2018-12-10T02:10:36.818Z,934.7
2018-12-10T02:11:36.544Z,934.7
2018-12-10T02:12:36.268Z,934.7
2018-12-10T02:13:36.000Z,934.6
2018-12-10T02:14:36.304Z,934.6
2018-12-10T02:15:36.178Z,934.8
2018-12-10T02:16:36.112Z,934.6
2018-12-10T02:17:35.997Z,934.8
2018-12-10T02:18:35.907Z,934.7
2018-12-10T02:19:35.822Z,934.8
2018-12-10T02:20:35.714Z,934.8
2018-12-10T02:21:35.575Z,934.8
2018-12-10T02:22:35.478Z,934.8
2018-12-10T02:23:35.354Z,934.9
2018-12-10T02:24:35.686Z,934.9
2018-12-10T02:25:35.561Z,934.9
2018-12-10T02:26:35.435Z,935
2018-12-10T02:27:35.315Z,934.9
2018-12-10T02:28:35.048Z,934.9
2018-12-10T02:29:34.773Z,934.9
2018-12-10T02:30:34.514Z,934.9
2018-12-10T02:31:34.249Z,934.9
2018-12-10T02:32:33.989Z,935
2018-12-10T02:33:33.729Z,935
2018-12-10T02:34:34.045Z,935
2018-12-10T02:35:33.922Z,935
2018-12-10T02:36:33.939Z,935
2018-12-10T02:37:33.812Z,935
2018-12-10T02:38:33.692Z,934.9
2018-12-10T02:39:33.562Z,935
2018-12-10T02:40:33.438Z,935
2018-12-10T02:41:33.316Z,935.1
2018-12-10T02:42:33.211Z,934.8
2018-12-10T02:43:33.082Z,935
2018-12-10T02:44:33.399Z,935
2018-12-10T02:45:33.304Z,935.1
2018-12-10T02:46:33.203Z,935.1
2018-12-10T02:47:33.093Z,935.1
2018-12-10T02:48:32.993Z,935.1
2018-12-10T02:49:32.969Z,935.1
2018-12-10T02:50:32.870Z,934.7
2018-12-10T02:51:32.772Z,934.8
2018-12-10T02:52:32.648Z,935.1
2018-12-10T02:53:32.691Z,935.2
2018-12-10T02:54:33.009Z,935
2018-12-10T02:55:32.909Z,934.9
2018-12-10T02:56:32.802Z,934.1
2018-12-10T02:57:32.724Z,935.1
2018-12-10T02:58:32.649Z,935.2
2018-12-10T02:59:32.531Z,935.2
2018-12-10T03:00:32.441Z,935.3
2018-12-10T03:01:32.328Z,935.3
2018-12-10T03:02:32.216Z,935.1
2018-12-10T03:03:32.118Z,935.1
2018-12-10T03:04:32.465Z,935.2
2018-12-10T03:05:32.390Z,935.2
2018-12-10T03:06:32.328Z,935.3
2018-12-10T03:07:32.064Z,935.3
2018-12-10T03:08:31.795Z,935.2
2018-12-10T03:09:31.544Z,935.2
2018-12-10T03:10:31.319Z,935.3
2018-12-10T03:11:31.039Z,935.3
2018-12-10T03:12:30.793Z,935.2
2018-12-10T03:13:30.512Z,935.2
2018-12-10T03:14:30.878Z,935.3
2018-12-10T03:15:30.790Z,934.5
2018-12-10T03:16:30.712Z,935.3
2018-12-10T03:17:30.725Z,935.4
2018-12-10T03:18:30.664Z,935.3
2018-12-10T03:19:30.566Z,935.4
2018-12-10T03:20:30.569Z,935.3
2018-12-10T03:21:30.462Z,935.4
2018-12-10T03:22:30.368Z,935.3
2018-12-10T03:23:30.278Z,935.2
2018-12-10T03:24:30.650Z,935.4
2018-12-10T03:25:30.552Z,935.4
2018-12-10T03:26:30.467Z,935.4
2018-12-10T03:27:30.365Z,935.5
2018-12-10T03:28:30.266Z,935.5
2018-12-10T03:29:30.158Z,935.5
2018-12-10T03:30:30.078Z,935.5
2018-12-10T03:31:30.043Z,935.4
2018-12-10T03:32:29.946Z,935.4
2018-12-10T03:33:29.861Z,935.4
2018-12-10T03:34:30.220Z,935.5
2018-12-10T03:35:30.120Z,935.4
2018-12-10T03:36:29.852Z,935.5
2018-12-10T03:37:29.587Z,935.3
2018-12-10T03:38:29.313Z,935.5
2018-12-10T03:39:29.041Z,935.5
2018-12-10T03:40:28.768Z,935.5
2018-12-10T03:41:28.490Z,935.3
2018-12-10T03:42:28.242Z,935.6
2018-12-10T03:43:27.976Z,935.6
2018-12-10T03:44:28.154Z,935.6
2018-12-10T03:45:27.892Z,935.4
2018-12-10T03:46:27.618Z,934.9
2018-12-10T03:47:27.368Z,935.5
2018-12-10T03:48:27.090Z,935.5
2018-12-10T03:49:26.931Z,935.5
2018-12-10T03:50:26.664Z,935.6
2018-12-10T03:51:26.388Z,935.5
2018-12-10T03:52:26.312Z,935.3
2018-12-10T03:53:26.038Z,935.5
2018-12-10T03:54:26.362Z,935.5
2018-12-10T03:55:26.087Z,935.6
2018-12-10T03:56:25.839Z,935.4
2018-12-10T03:57:25.718Z,935.5
2018-12-10T03:58:25.522Z,935.5
2018-12-10T03:59:25.257Z,935.6
2018-12-10T04:00:24.979Z,935.6
2018-12-10T04:01:24.713Z,935.6
2018-12-10T04:02:24.464Z,935.6
2018-12-10T04:03:24.219Z,935.7
2018-12-10T04:04:24.526Z,935.6
2018-12-10T04:05:24.443Z,935.5
2018-12-10T04:06:24.332Z,935.6
2018-12-10T04:07:24.225Z,935.5
2018-12-10T04:08:24.111Z,935.6
2018-12-10T04:09:24.007Z,935.5
2018-12-10T04:10:23.899Z,935.5
2018-12-10T04:11:23.811Z,935.5
2018-12-10T04:12:23.741Z,935.5
2018-12-10T04:13:23.640Z,935.5
2018-12-10T04:14:23.962Z,935.5
2018-12-10T04:15:23.833Z,935.5
2018-12-10T04:16:23.856Z,935.5
2018-12-10T04:17:23.750Z,935.5
2018-12-10T04:18:26.075Z,935.3
2018-12-10T04:19:25.969Z,935.5
2018-12-10T04:20:25.883Z,935.4
2018-12-10T04:21:25.792Z,935.4
2018-12-10T04:22:25.688Z,935.4
2018-12-10T04:23:25.613Z,935.5
2018-12-10T04:24:25.999Z,935.6
2018-12-10T04:25:25.897Z,935.6
2018-12-10T04:26:25.792Z,935.5
2018-12-10T04:27:25.788Z,935.5
2018-12-10T04:28:25.689Z,935.7
2018-12-10T04:29:25.733Z,935.5
2018-12-10T04:30:25.638Z,935.5
2018-12-10T04:31:25.523Z,935.6
2018-12-10T04:32:25.405Z,935.7
2018-12-10T04:33:25.291Z,935.6
2018-12-10T04:34:25.725Z,935.7
2018-12-10T04:35:25.613Z,935.7
2018-12-10T04:36:25.506Z,935.8
2018-12-10T04:37:25.601Z,935.7
2018-12-10T04:38:25.495Z,935.5
2018-12-10T04:39:25.476Z,935.7
2018-12-10T04:40:25.358Z,935.7
2018-12-10T04:41:25.255Z,935.7
2018-12-10T04:42:25.205Z,935.6
2018-12-10T04:43:25.091Z,935.7
2018-12-10T04:44:25.411Z,935.7
2018-12-10T04:45:25.313Z,935.6
2018-12-10T04:46:25.044Z,935.5
2018-12-10T04:47:24.774Z,935.7
2018-12-10T04:48:24.505Z,935.6
2018-12-10T04:49:24.237Z,935.5
2018-12-10T04:50:24.034Z,935.3
2018-12-10T04:51:23.753Z,935.4
2018-12-10T04:52:23.480Z,935.5
2018-12-10T04:53:23.195Z,935.6
2018-12-10T04:54:23.478Z,935.6
2018-12-10T04:55:23.376Z,935.5
2018-12-10T04:56:23.280Z,935.5
2018-12-10T04:57:23.190Z,935.7
2018-12-10T04:58:23.066Z,935.5
2018-12-10T04:59:22.969Z,935.5
2018-12-10T05:00:22.878Z,935.5
2018-12-10T05:01:22.854Z,935.7
2018-12-10T05:02:22.725Z,935.7
2018-12-10T05:03:22.594Z,935.5
2018-12-10T05:04:22.872Z,935.6
2018-12-10T05:05:22.775Z,935.6
2018-12-10T05:06:22.693Z,935.6
2018-12-10T05:07:22.565Z,935.6
2018-12-10T05:08:22.458Z,935.7
2018-12-10T05:09:22.328Z,934.1
2018-12-10T05:10:22.232Z,935.5
2018-12-10T05:11:22.162Z,935.5
2018-12-10T05:12:22.048Z,935.6
2018-12-10T05:13:21.966Z,935.5
2018-12-10T05:14:22.286Z,935.7
2018-12-10T05:15:22.170Z,934.9
2018-12-10T05:16:22.062Z,935.8
2018-12-10T05:17:21.954Z,935.6
2018-12-10T05:18:21.836Z,935.7
2018-12-10T05:19:21.712Z,935.8
2018-12-10T05:20:21.610Z,935.7
2018-12-10T05:21:21.508Z,935.8
2018-12-10T05:22:21.429Z,935.8
2018-12-10T05:23:21.320Z,935.9
2018-12-10T05:24:21.636Z,935.9
2018-12-10T05:25:21.634Z,935.9
2018-12-10T05:26:21.522Z,934.7
2018-12-10T05:27:21.422Z,935.3
2018-12-10T05:28:21.330Z,934.4
2018-12-10T05:29:21.245Z,936
2018-12-10T05:30:21.135Z,935.9
2018-12-10T05:31:21.026Z,936
2018-12-10T05:32:20.913Z,936
2018-12-10T05:33:20.829Z,936
2018-12-10T05:34:21.146Z,936
2018-12-10T05:35:21.037Z,936.1
2018-12-10T05:36:20.915Z,936.1
2018-12-10T05:37:20.818Z,936.1
2018-12-10T05:38:20.825Z,936
2018-12-10T05:39:20.710Z,936.1
2018-12-10T05:40:20.603Z,936.1
2018-12-10T05:41:20.477Z,936
2018-12-10T05:42:20.360Z,936
2018-12-10T05:43:20.283Z,936.2
2018-12-10T05:44:20.611Z,935.9
2018-12-10T05:45:20.509Z,936
2018-12-10T05:46:20.231Z,936.1
2018-12-10T05:47:19.963Z,936.1
2018-12-10T05:48:19.694Z,936.1
2018-12-10T05:49:19.431Z,936
2018-12-10T05:50:19.148Z,936
2018-12-10T05:51:18.887Z,936.1
2018-12-10T05:52:18.629Z,936
2018-12-10T05:53:18.364Z,936.1
2018-12-10T05:54:18.670Z,936.2
2018-12-10T05:55:18.577Z,936.1
2018-12-10T05:56:18.451Z,934.6
2018-12-10T05:57:18.333Z,935.9
2018-12-10T05:58:18.689Z,936
2018-12-10T05:59:18.579Z,935.9
2018-12-10T06:00:18.505Z,936
2018-12-10T06:01:18.394Z,936.1
2018-12-10T06:02:18.391Z,936.1
2018-12-10T06:03:20.371Z,936.1
2018-12-10T06:04:20.697Z,936.1
2018-12-10T06:05:20.604Z,936.1
2018-12-10T06:06:20.516Z,935.9
2018-12-10T06:07:20.393Z,936.1
2018-12-10T06:08:20.285Z,936
2018-12-10T06:09:20.165Z,936
2018-12-10T06:10:20.070Z,935.9
2018-12-10T06:11:19.960Z,935.9
2018-12-10T06:12:19.829Z,936.1
2018-12-10T06:13:19.813Z,936.2
2018-12-10T06:14:20.120Z,936.2
2018-12-10T06:15:20.050Z,936.1
2018-12-10T06:16:19.944Z,936.1
2018-12-10T06:17:19.841Z,936.2
2018-12-10T06:18:19.729Z,936.1
2018-12-10T06:19:19.615Z,936
2018-12-10T06:20:19.541Z,936.1
2018-12-10T06:21:19.427Z,936
2018-12-10T06:22:19.302Z,936.1
2018-12-10T06:23:19.200Z,936.2
2018-12-10T06:24:19.513Z,936.2
2018-12-10T06:25:19.573Z,936
2018-12-10T06:26:19.476Z,936.2
2018-12-10T06:27:19.364Z,936
2018-12-10T06:28:19.247Z,936.1
2018-12-10T06:29:19.151Z,936.2
2018-12-10T06:30:19.023Z,936.1
2018-12-10T06:31:18.907Z,936.2
2018-12-10T06:32:18.818Z,936.2
2018-12-10T06:33:18.695Z,936.1
2018-12-10T06:34:19.083Z,936.2
2018-12-10T06:35:18.991Z,936.3
2018-12-10T06:36:18.878Z,936.2
2018-12-10T06:37:18.904Z,936
2018-12-10T06:38:18.875Z,936.3
2018-12-10T06:39:18.769Z,936.3
2018-12-10T06:40:18.646Z,936.3
2018-12-10T06:41:18.640Z,936.2
2018-12-10T06:42:18.575Z,936.4
2018-12-10T06:43:18.470Z,936.3
2018-12-10T06:44:18.780Z,936.4
2018-12-10T06:45:18.674Z,935
2018-12-10T06:46:18.676Z,936.4
2018-12-10T06:47:18.567Z,936.2
2018-12-10T06:48:18.470Z,936.3
2018-12-10T06:49:18.354Z,936.5
2018-12-10T06:50:18.245Z,936.4
2018-12-10T06:51:18.130Z,936.5
2018-12-10T06:52:18.028Z,936.3
2018-12-10T06:53:17.934Z,936.5
2018-12-10T06:54:18.251Z,936.5
2018-12-10T06:55:18.144Z,936.5
2018-12-10T06:56:17.865Z,936.5
2018-12-10T06:57:17.592Z,936.4
2018-12-10T06:58:17.312Z,936.4
2018-12-10T06:59:17.053Z,936.4
2018-12-10T07:00:16.877Z,936.5
2018-12-10T07:01:16.628Z,936.6
2018-12-10T07:02:16.361Z,936.5
2018-12-10T07:03:16.091Z,936.5
2018-12-10T07:04:16.453Z,936.5
2018-12-10T07:05:16.452Z,936.6
2018-12-10T07:06:16.337Z,936.4
2018-12-10T07:07:16.222Z,936.5
2018-12-10T07:08:16.102Z,936.5
2018-12-10T07:09:15.980Z,936.6
2018-12-10T07:10:15.878Z,936.5
2018-12-10T07:11:15.758Z,936.4
2018-12-10T07:12:15.663Z,936.5
2018-12-10T07:13:15.545Z,936.6
2018-12-10T07:14:15.869Z,936.7
2018-12-10T07:15:15.767Z,936.7
2018-12-10T07:16:15.662Z,936.5
2018-12-10T07:17:15.543Z,936.7
2018-12-10T07:18:15.445Z,936.7
2018-12-10T07:19:15.340Z,936.8
2018-12-10T07:20:15.273Z,936.7
2018-12-10T07:21:15.185Z,936.7
2018-12-10T07:22:15.102Z,936.7
2018-12-10T07:23:14.982Z,936.7
2018-12-10T07:24:15.305Z,936.7
2018-12-10T07:25:15.227Z,936.7
2018-12-10T07:26:15.140Z,936.7
2018-12-10T07:27:15.040Z,936.8
2018-12-10T07:28:14.927Z,936.8
2018-12-10T07:29:14.925Z,936.9
2018-12-10T07:30:14.813Z,936.8
2018-12-10T07:31:14.817Z,936.8
2018-12-10T07:32:14.698Z,936.8
2018-12-10T07:33:14.594Z,936.7
2018-12-10T07:34:14.892Z,936.6
2018-12-10T07:35:14.789Z,936.8
2018-12-10T07:36:14.685Z,936.9
2018-12-10T07:37:14.577Z,937
2018-12-10T07:38:14.569Z,936.9
2018-12-10T07:39:14.471Z,937
2018-12-10T07:40:14.385Z,936.9
2018-12-10T07:41:14.253Z,937
2018-12-10T07:42:14.148Z,937
2018-12-10T07:43:14.028Z,937
2018-12-10T07:44:14.452Z,937.2
2018-12-10T07:45:14.329Z,937.2
2018-12-10T07:46:14.225Z,937.2
2018-12-10T07:47:14.152Z,937.1
2018-12-10T07:48:14.053Z,937
2018-12-10T07:49:13.963Z,937
2018-12-10T07:50:13.857Z,937.2
2018-12-10T07:51:13.783Z,937.1
2018-12-10T07:52:13.657Z,937.2
2018-12-10T07:53:13.558Z,937.3
2018-12-10T07:54:13.972Z,937.4
2018-12-10T07:55:13.858Z,937.3
2018-12-10T07:56:13.745Z,937.3
2018-12-10T07:57:13.637Z,937.4
2018-12-10T07:58:13.545Z,937.5
2018-12-10T07:59:13.439Z,937.5
2018-12-10T08:00:13.327Z,937.3
2018-12-10T08:01:13.211Z,937.6
2018-12-10T08:02:13.111Z,937.6
2018-12-10T08:03:13.072Z,937.6
2018-12-10T08:04:13.429Z,937.6
2018-12-10T08:05:13.517Z,937.6
2018-12-10T08:06:13.457Z,937.6
2018-12-10T08:07:13.349Z,937.6
2018-12-10T08:08:13.225Z,937.6
2018-12-10T08:09:13.136Z,937.5
2018-12-10T08:10:13.011Z,937.6
2018-12-10T08:11:12.899Z,937.6
2018-12-10T08:12:12.799Z,937.4
2018-12-10T08:13:12.687Z,937.4
2018-12-10T08:14:13.065Z,937.6
2018-12-10T08:15:12.803Z,937.6
2018-12-10T08:16:12.531Z,937.5
2018-12-10T08:17:12.251Z,937.6
2018-12-10T08:18:11.979Z,937.6
2018-12-10T08:19:11.721Z,937.5
2018-12-10T08:20:11.472Z,937.7
2018-12-10T08:21:11.209Z,937.5
2018-12-10T08:22:10.943Z,937.7
2018-12-10T08:23:10.661Z,937.7
2018-12-10T08:24:10.973Z,937.8
2018-12-10T08:25:10.885Z,937.7
2018-12-10T08:26:10.773Z,937.6
2018-12-10T08:27:10.812Z,937.7
2018-12-10T08:28:10.883Z,937.7
2018-12-10T08:29:10.777Z,937.7
2018-12-10T08:30:10.669Z,937.7
2018-12-10T08:31:10.571Z,937.7
2018-12-10T08:32:10.447Z,937.8
2018-12-10T08:33:10.332Z,937.8
2018-12-10T08:34:10.652Z,937.8
2018-12-10T08:35:10.572Z,937.9
2018-12-10T08:36:10.485Z,937.7
2018-12-10T08:37:10.367Z,937.8
2018-12-10T08:38:10.260Z,937.8
2018-12-10T08:39:10.154Z,937.9
2018-12-10T08:40:10.036Z,937.9
2018-12-10T08:41:09.919Z,937.8
2018-12-10T08:42:09.811Z,937.8
2018-12-10T08:43:09.695Z,937.9
2018-12-10T08:44:09.990Z,937.9
2018-12-10T08:45:09.872Z,937.9
2018-12-10T08:46:09.765Z,937.8
2018-12-10T08:47:17.162Z,938
2018-12-10T08:48:17.043Z,937.8
2018-12-10T08:49:16.927Z,937.8
2018-12-10T08:50:16.825Z,937.8
2018-12-10T08:51:17.489Z,937.8
2018-12-10T08:52:17.515Z,938
2018-12-10T08:53:17.391Z,938
2018-12-10T08:54:17.976Z,937.9
2018-12-10T08:55:17.878Z,937.9
2018-12-10T08:56:17.785Z,938
2018-12-10T08:57:18.250Z,938
2018-12-10T08:58:18.193Z,938
2018-12-10T08:59:18.081Z,938
2018-12-10T09:00:17.981Z,938
2018-12-10T09:01:17.859Z,938
2018-12-10T09:02:17.776Z,938.1
2018-12-10T09:03:17.696Z,938
2018-12-10T09:04:17.979Z,938.1
2018-12-10T09:05:17.885Z,938.1
2018-12-10T09:06:17.759Z,938
2018-12-10T09:07:17.634Z,938.2
2018-12-10T09:08:17.565Z,938.1
2018-12-10T09:09:17.454Z,938.2
2018-12-10T09:10:17.340Z,938.3
2018-12-10T09:11:17.233Z,938.3
2018-12-10T09:12:17.114Z,938.3
2018-12-10T09:13:17.009Z,938.3
2018-12-10T09:14:17.365Z,938.4
2018-12-10T09:15:17.261Z,938.4
2018-12-10T09:16:17.169Z,938.4
2018-12-10T09:17:17.049Z,938.5
2018-12-10T09:18:16.927Z,938.5
2018-12-10T09:19:17.059Z,938.5
2018-12-10T09:20:16.973Z,938.4
2018-12-10T09:21:16.883Z,938.4
2018-12-10T09:22:16.771Z,938.5
2018-12-10T09:23:16.695Z,938.5
2018-12-10T09:24:17.286Z,938.5
2018-12-10T09:25:17.195Z,938.5
2018-12-10T09:26:17.095Z,938.6
2018-12-10T09:27:17.101Z,938.5
2018-12-10T09:28:20.495Z,938.6
2018-12-10T09:29:20.444Z,938.5
2018-12-10T09:30:20.329Z,938.5
2018-12-10T09:31:20.234Z,938.5
2018-12-10T09:32:20.147Z,938.6
2018-12-10T09:33:20.045Z,938.6
2018-12-10T09:34:20.373Z,938.6
2018-12-10T09:35:20.297Z,938.6
2018-12-10T09:36:20.183Z,938.6
2018-12-10T09:37:20.087Z,938.6
2018-12-10T09:38:19.974Z,938.7
2018-12-10T09:39:19.881Z,938.6
2018-12-10T09:40:19.788Z,938.7
2018-12-10T09:41:19.685Z,938.7
2018-12-10T09:42:19.587Z,938.7
2018-12-10T09:43:19.485Z,938.7
2018-12-10T09:44:19.817Z,938.7
2018-12-10T09:45:19.712Z,938.6
2018-12-10T09:46:41.885Z,938.6
2018-12-10T09:47:41.787Z,938.6
2018-12-10T09:48:41.759Z,938.7
2018-12-10T09:49:41.659Z,938.7
2018-12-10T09:50:41.550Z,938.6
2018-12-10T09:51:43.678Z,938.7
2018-12-10T09:52:43.557Z,938.5
2018-12-10T09:53:43.453Z,938.7
2018-12-10T09:54:43.771Z,938.5
2018-12-10T09:55:43.663Z,938.7
2018-12-10T09:56:43.575Z,938.7
2018-12-10T09:57:43.479Z,938.7
2018-12-10T09:58:43.447Z,938.7
2018-12-10T09:59:43.337Z,938.8
2018-12-10T10:00:43.228Z,938.7
2018-12-10T10:01:43.140Z,938.8
2018-12-10T10:02:43.042Z,938.7
2018-12-10T10:03:43.045Z,938.8
2018-12-10T10:04:43.341Z,938.7
2018-12-10T10:05:43.227Z,938.7
2018-12-10T10:06:44.832Z,938.8
2018-12-10T10:07:44.769Z,938.8
2018-12-10T10:08:44.652Z,938.6
2018-12-10T10:09:44.547Z,938.7
2018-12-10T10:10:44.452Z,938.7
2018-12-10T10:11:44.435Z,938.8
2018-12-10T10:12:44.349Z,938.8
2018-12-10T10:13:44.274Z,938.7
2018-12-10T10:14:44.606Z,938.7
2018-12-10T10:15:44.606Z,938.7
2018-12-10T10:16:44.514Z,938.8
2018-12-10T10:17:44.427Z,938.7
2018-12-10T10:18:44.336Z,938.7
2018-12-10T10:19:44.221Z,938.8
2018-12-10T10:20:44.117Z,938.7
2018-12-10T10:21:43.993Z,938.7
2018-12-10T10:22:43.876Z,938.8
2018-12-10T10:23:43.791Z,938.8
2018-12-10T10:24:44.114Z,938.8
2018-12-10T10:25:43.997Z,938.7
2018-12-10T10:26:43.898Z,938.7
2018-12-10T10:27:43.780Z,938.7
2018-12-10T10:28:43.695Z,938.7
2018-12-10T10:29:43.592Z,938.9
2018-12-10T10:30:44.962Z,938.8
2018-12-10T10:31:44.872Z,938.9
2018-12-10T10:32:44.763Z,937.6
2018-12-10T10:33:44.656Z,938.7
2018-12-10T10:34:45.009Z,938.9
2018-12-10T10:35:44.899Z,938.9
2018-12-10T10:36:45.608Z,938.8
2018-12-10T10:37:45.587Z,938.9
2018-12-10T10:38:45.515Z,938.8
2018-12-10T10:39:45.451Z,938.9
2018-12-10T10:40:45.336Z,938.9
2018-12-10T10:41:45.208Z,938.9
2018-12-10T10:42:45.110Z,939.1
2018-12-10T10:43:45.006Z,939.1
2018-12-10T10:44:45.512Z,939
2018-12-10T10:45:45.413Z,939
2018-12-10T10:46:45.310Z,939.1
2018-12-10T10:47:45.202Z,939
2018-12-10T10:48:45.095Z,939
2018-12-10T10:49:45.002Z,939
2018-12-10T10:50:44.890Z,937.9
2018-12-10T10:51:44.932Z,939.1
2018-12-10T10:52:44.847Z,939.2
2018-12-10T10:53:44.741Z,939.1
2018-12-10T10:54:45.090Z,939
2018-12-10T10:55:45.004Z,939
2018-12-10T10:56:44.896Z,939.2
2018-12-10T10:57:44.778Z,939.1
2018-12-10T10:58:44.666Z,939.1
2018-12-10T10:59:44.588Z,939.1
2018-12-10T11:00:44.496Z,939.1
2018-12-10T11:01:44.419Z,939.1
2018-12-10T11:02:46.368Z,939.1
2018-12-10T11:03:46.298Z,939.1
2018-12-10T11:04:46.662Z,939.2
2018-12-10T11:05:46.400Z,939.2
2018-12-10T11:06:46.135Z,939.1
2018-12-10T11:07:45.882Z,939.1
2018-12-10T11:08:45.618Z,939.2
2018-12-10T11:09:45.350Z,939.3
2018-12-10T11:10:45.085Z,939.2
2018-12-10T11:11:44.852Z,939.2
2018-12-10T11:12:44.586Z,939.2
2018-12-10T11:13:44.326Z,939.1
2018-12-10T11:14:44.760Z,939.1
2018-12-10T11:15:44.676Z,939.2
2018-12-10T11:16:44.564Z,939.2
2018-12-10T11:17:44.471Z,939.2
2018-12-10T11:18:44.374Z,939.1
2018-12-10T11:19:44.386Z,939.2
2018-12-10T11:20:44.284Z,939.1
2018-12-10T11:21:44.186Z,939.1
2018-12-10T11:22:44.078Z,937.8
2018-12-10T11:23:43.978Z,938.9
2018-12-10T11:24:44.310Z,939.2
2018-12-10T11:25:44.192Z,939
2018-12-10T11:26:44.194Z,939.1
2018-12-10T11:27:44.070Z,939.1
2018-12-10T11:28:43.954Z,939.2
2018-12-10T11:29:43.847Z,939.1
2018-12-10T11:30:43.742Z,939.1
2018-12-10T11:31:43.668Z,939.1
2018-12-10T11:32:43.650Z,939
2018-12-10T11:33:43.538Z,938.9
2018-12-10T11:34:43.872Z,939
2018-12-10T11:35:43.766Z,939.1
2018-12-10T11:36:43.678Z,939
2018-12-10T11:37:43.640Z,938.9
2018-12-10T11:38:43.590Z,939
2018-12-10T11:39:43.576Z,939
2018-12-10T11:40:43.468Z,939
2018-12-10T11:41:43.360Z,938.9
2018-12-10T11:42:43.454Z,938.9
2018-12-10T11:43:43.343Z,939
2018-12-10T11:44:43.653Z,939
2018-12-10T11:45:43.554Z,939
2018-12-10T11:46:43.454Z,939
2018-12-10T11:47:43.358Z,939
2018-12-10T11:48:43.256Z,938.9
2018-12-10T11:49:43.150Z,939
2018-12-10T11:50:43.044Z,939
2018-12-10T11:51:42.949Z,939
2018-12-10T11:52:42.850Z,938.9
2018-12-10T11:53:42.744Z,937.8
2018-12-10T11:54:43.139Z,939
2018-12-10T11:55:43.043Z,938.9
2018-12-10T11:56:42.768Z,939
2018-12-10T11:57:42.513Z,939
2018-12-10T11:58:42.251Z,938.8
2018-12-10T11:59:41.983Z,938.8
2018-12-10T12:00:41.725Z,938.8
2018-12-10T12:01:41.455Z,938.8
2018-12-10T12:02:41.196Z,938.7
2018-12-10T12:03:40.932Z,938.8
2018-12-10T12:04:41.274Z,938.6
2018-12-10T12:05:43.013Z,938.5
2018-12-10T12:06:42.917Z,938.5
2018-12-10T12:07:42.891Z,938.6
2018-12-10T12:08:42.821Z,938.6
2018-12-10T12:09:42.706Z,938.6
2018-12-10T12:10:42.734Z,938.7
2018-12-10T12:11:42.749Z,938.4
2018-12-10T12:12:42.656Z,938.5
2018-12-10T12:13:44.771Z,938.7
2018-12-10T12:14:45.123Z,938.4
2018-12-10T12:15:45.043Z,938.5
2018-12-10T12:16:44.942Z,938.5
2018-12-10T12:17:44.834Z,938.4
2018-12-10T12:18:44.715Z,938.5
2018-12-10T12:19:44.609Z,938.5
2018-12-10T12:20:44.487Z,938.5
2018-12-10T12:21:44.421Z,938.5
2018-12-10T12:22:44.319Z,938.5
2018-12-10T12:23:44.212Z,938.5
2018-12-10T12:24:44.861Z,938.5
2018-12-10T12:25:44.814Z,938.5
2018-12-10T12:26:46.514Z,938.4
2018-12-10T12:27:46.405Z,938.5
2018-12-10T12:28:46.293Z,938.4
2018-12-10T12:29:46.188Z,938.4
2018-12-10T12:30:46.076Z,938.4
2018-12-10T12:31:45.972Z,937.7
2018-12-10T12:32:45.881Z,938.3
2018-12-10T12:33:45.900Z,938.4
2018-12-10T12:34:46.236Z,938.4
2018-12-10T12:35:46.111Z,938.3
2018-12-10T12:36:46.165Z,938.2
2018-12-10T12:37:46.094Z,938.3
2018-12-10T12:38:45.977Z,938.3
2018-12-10T12:39:45.961Z,938.4
2018-12-10T12:40:45.855Z,938.3
2018-12-10T12:41:45.727Z,938.4
2018-12-10T12:42:45.632Z,937.5
2018-12-10T12:43:45.553Z,938.4
2018-12-10T12:44:45.871Z,938.4
2018-12-10T12:45:45.754Z,936.8
2018-12-10T12:46:45.652Z,938.2
2018-12-10T12:47:45.532Z,938.3
2018-12-10T12:48:45.409Z,938.4
2018-12-10T12:49:45.312Z,938.3
2018-12-10T12:50:45.221Z,938.3
2018-12-10T12:51:45.102Z,938.3
2018-12-10T12:52:45.126Z,938.4
2018-12-10T12:53:45.023Z,938.3
2018-12-10T12:54:45.380Z,938.4
2018-12-10T12:55:45.274Z,938.4
2018-12-10T12:56:45.181Z,938.4
2018-12-10T12:57:45.087Z,938.5
2018-12-10T12:58:44.977Z,938.5